sensor_id;sensor_type;location;lat;lon;timestamp;temperature;humidity
66582;SHT31;53438;48.898;2.308;2023-02-28T00:02:08;3.25;62.06
66582;SHT31;53438;48.898;2.308;2023-02-28T00:04:34;3.13;62.50
66582;SHT31;53438;48.898;2.308;2023-02-28T00:07:00;3.23;62.51
66582;SHT31;53438;48.898;2.308;2023-02-28T00:09:25;3.25;62.30
66582;SHT31;53438;48.898;2.308;2023-02-28T00:11:50;3.12;62.59
66582;SHT31;53438;48.898;2.308;2023-02-28T00:14:16;3.12;62.51
66582;SHT31;53438;48.898;2.308;2023-02-28T00:16:41;3.08;62.60
66582;SHT31;53438;48.898;2.308;2023-02-28T00:19:06;3.15;62.86
66582;SHT31;53438;48.898;2.308;2023-02-28T00:21:32;3.04;62.77
66582;SHT31;53438;48.898;2.308;2023-02-28T00:23:58;3.01;63.15
66582;SHT31;53438;48.898;2.308;2023-02-28T00:26:24;3.11;62.90
66582;SHT31;53438;48.898;2.308;2023-02-28T00:28:51;3.12;62.75
66582;SHT31;53438;48.898;2.308;2023-02-28T00:31:17;3.04;62.81
66582;SHT31;53438;48.898;2.308;2023-02-28T00:33:43;2.98;63.22
66582;SHT31;53438;48.898;2.308;2023-02-28T00:36:10;3.04;63.08
66582;SHT31;53438;48.898;2.308;2023-02-28T00:38:37;2.95;63.05
66582;SHT31;53438;48.898;2.308;2023-02-28T00:41:03;2.84;63.30
66582;SHT31;53438;48.898;2.308;2023-02-28T00:43:35;2.87;63.50
66582;SHT31;53438;48.898;2.308;2023-02-28T00:46:01;2.91;63.39
66582;SHT31;53438;48.898;2.308;2023-02-28T00:48:27;2.89;63.20
66582;SHT31;53438;48.898;2.308;2023-02-28T00:50:54;2.83;63.38
66582;SHT31;53438;48.898;2.308;2023-02-28T00:53:20;2.94;63.04
66582;SHT31;53438;48.898;2.308;2023-02-28T00:55:47;2.88;63.20
66582;SHT31;53438;48.898;2.308;2023-02-28T00:58:13;2.87;63.22
66582;SHT31;53438;48.898;2.308;2023-02-28T04:02:05;2.06;61.09
66582;SHT31;53438;48.898;2.308;2023-02-28T04:04:31;2.01;61.34
66582;SHT31;53438;48.898;2.308;2023-02-28T04:07:05;2.07;61.23
66582;SHT31;53438;48.898;2.308;2023-02-28T04:09:31;2.05;61.14
66582;SHT31;53438;48.898;2.308;2023-02-28T04:11:57;2.19;60.96
66582;SHT31;53438;48.898;2.308;2023-02-28T04:14:23;2.02;60.91
66582;SHT31;53438;48.898;2.308;2023-02-28T04:16:48;1.99;61.26
66582;SHT31;53438;48.898;2.308;2023-02-28T04:19:16;1.98;61.42
66582;SHT31;53438;48.898;2.308;2023-02-28T04:21:44;1.82;61.62
66582;SHT31;53438;48.898;2.308;2023-02-28T04:24:12;1.85;61.73
66582;SHT31;53438;48.898;2.308;2023-02-28T04:26:43;1.78;61.95
66582;SHT31;53438;48.898;2.308;2023-02-28T04:29:10;1.86;61.72
66582;SHT31;53438;48.898;2.308;2023-02-28T04:31:36;1.85;61.75
66582;SHT31;53438;48.898;2.308;2023-02-28T04:34:02;1.85;61.58
66582;SHT31;53438;48.898;2.308;2023-02-28T04:36:28;1.76;61.80
66582;SHT31;53438;48.898;2.308;2023-02-28T04:38:53;1.86;61.66
66582;SHT31;53438;48.898;2.308;2023-02-28T04:41:20;1.76;61.75
66582;SHT31;53438;48.898;2.308;2023-02-28T04:43:46;1.68;62.47
66582;SHT31;53438;48.898;2.308;2023-02-28T04:46:12;1.65;62.60
66582;SHT31;53438;48.898;2.308;2023-02-28T04:48:38;1.81;62.15
66582;SHT31;53438;48.898;2.308;2023-02-28T04:51:09;1.68;62.51
66582;SHT31;53438;48.898;2.308;2023-02-28T04:53:36;1.65;62.59
66582;SHT31;53438;48.898;2.308;2023-02-28T04:56:02;1.75;62.44
66582;SHT31;53438;48.898;2.308;2023-02-28T04:58:29;1.46;63.32
66582;SHT31;53438;48.898;2.308;2023-02-28T05:01:02;1.61;62.99
66582;SHT31;53438;48.898;2.308;2023-02-28T05:03:27;1.74;62.56
66582;SHT31;53438;48.898;2.308;2023-02-28T05:05:53;1.74;62.54
66582;SHT31;53438;48.898;2.308;2023-02-28T05:08:18;1.74;62.49
66582;SHT31;53438;48.898;2.308;2023-02-28T05:10:43;1.58;62.84
66582;SHT31;53438;48.898;2.308;2023-02-28T05:13:11;1.71;62.67
66582;SHT31;53438;48.898;2.308;2023-02-28T05:15:37;1.78;62.66
66582;SHT31;53438;48.898;2.308;2023-02-28T05:18:02;1.76;62.54
66582;SHT31;53438;48.898;2.308;2023-02-28T05:20:28;1.75;62.53
66582;SHT31;53438;48.898;2.308;2023-02-28T05:22:53;1.62;62.85
66582;SHT31;53438;48.898;2.308;2023-02-28T05:25:21;1.52;63.13
66582;SHT31;53438;48.898;2.308;2023-02-28T05:27:47;1.48;63.88
66582;SHT31;53438;48.898;2.308;2023-02-28T05:30:12;1.34;64.27
66582;SHT31;53438;48.898;2.308;2023-02-28T05:32:38;1.27;65.25
66582;SHT31;53438;48.898;2.308;2023-02-28T05:35:04;1.20;65.46
66582;SHT31;53438;48.898;2.308;2023-02-28T05:37:30;1.31;65.58
66582;SHT31;53438;48.898;2.308;2023-02-28T05:39:55;1.38;65.58
66582;SHT31;53438;48.898;2.308;2023-02-28T05:42:20;1.34;65.84
66582;SHT31;53438;48.898;2.308;2023-02-28T05:44:46;1.27;66.30
66582;SHT31;53438;48.898;2.308;2023-02-28T05:47:11;1.34;66.74
66582;SHT31;53438;48.898;2.308;2023-02-28T05:49:40;1.36;66.63
66582;SHT31;53438;48.898;2.308;2023-02-28T05:52:06;1.31;67.26
66582;SHT31;53438;48.898;2.308;2023-02-28T05:54:31;1.17;67.80
66582;SHT31;53438;48.898;2.308;2023-02-28T05:56:56;1.19;68.30
66582;SHT31;53438;48.898;2.308;2023-02-28T05:59:22;1.12;68.33
66582;SHT31;53438;48.898;2.308;2023-02-28T06:01:47;1.01;68.82
66582;SHT31;53438;48.898;2.308;2023-02-28T06:04:19;1.04;69.00
66582;SHT31;53438;48.898;2.308;2023-02-28T06:06:49;1.01;69.43
66582;SHT31;53438;48.898;2.308;2023-02-28T06:09:14;1.07;69.07
66582;SHT31;53438;48.898;2.308;2023-02-28T06:11:40;0.97;69.27
66582;SHT31;53438;48.898;2.308;2023-02-28T06:14:06;1.12;69.23
66582;SHT31;53438;48.898;2.308;2023-02-28T06:16:34;1.03;68.99
66582;SHT31;53438;48.898;2.308;2023-02-28T06:19:02;1.12;69.01
66582;SHT31;53438;48.898;2.308;2023-02-28T06:21:29;1.01;69.16
66582;SHT31;53438;48.898;2.308;2023-02-28T06:23:56;1.13;69.02
66582;SHT31;53438;48.898;2.308;2023-02-28T06:26:21;1.19;68.82
66582;SHT31;53438;48.898;2.308;2023-02-28T06:28:47;1.10;69.21
66582;SHT31;53438;48.898;2.308;2023-02-28T06:31:15;1.03;69.42
66582;SHT31;53438;48.898;2.308;2023-02-28T06:33:42;1.08;69.23
66582;SHT31;53438;48.898;2.308;2023-02-28T06:36:09;1.04;69.27
66582;SHT31;53438;48.898;2.308;2023-02-28T06:38:35;1.08;69.44
66582;SHT31;53438;48.898;2.308;2023-02-28T06:41:01;1.06;69.44
66582;SHT31;53438;48.898;2.308;2023-02-28T06:43:33;1.15;69.34
66582;SHT31;53438;48.898;2.308;2023-02-28T06:46:00;1.04;69.64
66582;SHT31;53438;48.898;2.308;2023-02-28T06:48:27;0.97;69.90
66582;SHT31;53438;48.898;2.308;2023-02-28T06:51:00;1.00;69.80
66582;SHT31;53438;48.898;2.308;2023-02-28T06:53:25;1.03;69.62
66582;SHT31;53438;48.898;2.308;2023-02-28T06:55:51;1.01;70.04
66582;SHT31;53438;48.898;2.308;2023-02-28T06:58:16;1.10;69.64
66582;SHT31;53438;48.898;2.308;2023-02-28T07:00:45;1.04;69.66
66582;SHT31;53438;48.898;2.308;2023-02-28T07:03:12;1.07;69.72
66582;SHT31;53438;48.898;2.308;2023-02-28T07:05:39;1.01;69.76
66582;SHT31;53438;48.898;2.308;2023-02-28T07:08:05;1.01;69.86
66582;SHT31;53438;48.898;2.308;2023-02-28T07:10:32;0.97;70.01
66582;SHT31;53438;48.898;2.308;2023-02-28T07:12:58;1.00;70.09
66582;SHT31;53438;48.898;2.308;2023-02-28T07:15:23;1.00;70.27
66582;SHT31;53438;48.898;2.308;2023-02-28T07:17:48;0.97;70.38
66582;SHT31;53438;48.898;2.308;2023-02-28T07:20:15;1.08;70.01
66582;SHT31;53438;48.898;2.308;2023-02-28T07:22:40;1.08;69.60
66582;SHT31;53438;48.898;2.308;2023-02-28T07:25:07;1.16;69.85
66582;SHT31;53438;48.898;2.308;2023-02-28T07:27:32;1.22;69.83
66582;SHT31;53438;48.898;2.308;2023-02-28T07:29:59;1.23;69.76
66582;SHT31;53438;48.898;2.308;2023-02-28T07:32:27;1.16;69.72
66582;SHT31;53438;48.898;2.308;2023-02-28T07:34:52;1.34;69.44
66582;SHT31;53438;48.898;2.308;2023-02-28T07:37:18;1.33;69.41
66582;SHT31;53438;48.898;2.308;2023-02-28T07:39:43;1.38;69.22
66582;SHT31;53438;48.898;2.308;2023-02-28T07:42:09;1.46;69.19
66582;SHT31;53438;48.898;2.308;2023-02-28T07:44:37;1.50;68.94
66582;SHT31;53438;48.898;2.308;2023-02-28T07:47:09;1.37;69.07
66582;SHT31;53438;48.898;2.308;2023-02-28T07:49:36;1.36;69.31
66582;SHT31;53438;48.898;2.308;2023-02-28T07:52:06;1.30;69.59
66582;SHT31;53438;48.898;2.308;2023-02-28T07:54:32;1.41;69.26
66582;SHT31;53438;48.898;2.308;2023-02-28T07:56:57;1.37;69.15
66582;SHT31;53438;48.898;2.308;2023-02-28T07:59:22;1.36;69.38
66582;SHT31;53438;48.898;2.308;2023-02-28T08:01:48;1.38;69.54
66582;SHT31;53438;48.898;2.308;2023-02-28T08:04:18;1.54;69.05
66582;SHT31;53438;48.898;2.308;2023-02-28T08:06:44;1.51;69.38
66582;SHT31;53438;48.898;2.308;2023-02-28T08:09:09;1.67;68.80
66582;SHT31;53438;48.898;2.308;2023-02-28T08:11:35;1.74;68.50
66582;SHT31;53438;48.898;2.308;2023-02-28T08:14:01;1.82;68.09
66582;SHT31;53438;48.898;2.308;2023-02-28T08:16:26;1.85;67.93
66582;SHT31;53438;48.898;2.308;2023-02-28T08:18:52;1.95;67.92
66582;SHT31;53438;48.898;2.308;2023-02-28T08:21:18;1.82;68.00
66582;SHT31;53438;48.898;2.308;2023-02-28T08:23:43;1.91;67.92
66582;SHT31;53438;48.898;2.308;2023-02-28T08:26:09;1.99;67.96
66582;SHT31;53438;48.898;2.308;2023-02-28T08:28:34;1.85;67.77
66582;SHT31;53438;48.898;2.308;2023-02-28T08:31:00;1.94;67.90
66582;SHT31;53438;48.898;2.308;2023-02-28T08:33:27;2.07;67.10
66582;SHT31;53438;48.898;2.308;2023-02-28T08:35:56;2.10;67.25
66582;SHT31;53438;48.898;2.308;2023-02-28T08:38:22;2.23;66.78
66582;SHT31;53438;48.898;2.308;2023-02-28T08:40:47;2.32;66.62
66582;SHT31;53438;48.898;2.308;2023-02-28T08:43:13;2.46;66.31
66582;SHT31;53438;48.898;2.308;2023-02-28T08:45:38;2.48;65.75
66582;SHT31;53438;48.898;2.308;2023-02-28T08:48:04;2.56;65.55
66582;SHT31;53438;48.898;2.308;2023-02-28T08:50:29;2.54;65.41
66582;SHT31;53438;48.898;2.308;2023-02-28T08:52:54;2.48;65.32
66582;SHT31;53438;48.898;2.308;2023-02-28T08:55:20;2.57;65.17
66582;SHT31;53438;48.898;2.308;2023-02-28T08:57:45;2.60;65.36
66582;SHT31;53438;48.898;2.308;2023-02-28T09:00:12;2.65;65.15
66582;SHT31;53438;48.898;2.308;2023-02-28T09:02:39;2.81;64.47
66582;SHT31;53438;48.898;2.308;2023-02-28T09:05:05;2.88;63.65
66582;SHT31;53438;48.898;2.308;2023-02-28T09:07:31;2.89;63.18
66582;SHT31;53438;48.898;2.308;2023-02-28T09:09:56;2.98;63.12
66582;SHT31;53438;48.898;2.308;2023-02-28T09:12:27;3.01;63.29
66582;SHT31;53438;48.898;2.308;2023-02-28T09:14:52;3.06;62.62
66582;SHT31;53438;48.898;2.308;2023-02-28T09:17:18;3.06;62.86
66582;SHT31;53438;48.898;2.308;2023-02-28T09:19:44;3.11;62.66
66582;SHT31;53438;48.898;2.308;2023-02-28T09:22:10;3.22;62.32
66582;SHT31;53438;48.898;2.308;2023-02-28T09:24:40;3.23;62.13
66582;SHT31;53438;48.898;2.308;2023-02-28T09:27:05;3.16;61.90
66582;SHT31;53438;48.898;2.308;2023-02-28T09:29:32;3.30;61.98
66582;SHT31;53438;48.898;2.308;2023-02-28T09:31:58;3.27;62.25
66582;SHT31;53438;48.898;2.308;2023-02-28T09:34:27;3.32;62.04
66582;SHT31;53438;48.898;2.308;2023-02-28T09:36:53;3.46;61.67
66582;SHT31;53438;48.898;2.308;2023-02-28T09:39:21;3.46;61.55
66582;SHT31;53438;48.898;2.308;2023-02-28T09:41:50;3.63;60.87
66582;SHT31;53438;48.898;2.308;2023-02-28T09:44:32;3.60;61.22
66582;SHT31;53438;48.898;2.308;2023-02-28T09:47:15;3.69;60.86
66582;SHT31;53438;48.898;2.308;2023-02-28T09:49:46;3.80;60.28
66582;SHT31;53438;48.898;2.308;2023-02-28T09:52:16;3.74;59.93
66582;SHT31;53438;48.898;2.308;2023-02-28T09:54:42;3.74;59.76
66582;SHT31;53438;48.898;2.308;2023-02-28T09:57:37;3.78;59.85
66582;SHT31;53438;48.898;2.308;2023-02-28T10:00:11;3.91;59.36
66582;SHT31;53438;48.898;2.308;2023-02-28T10:05:29;3.98;59.31
66582;SHT31;53438;48.898;2.308;2023-02-28T10:08:16;4.01;58.70
66582;SHT31;53438;48.898;2.308;2023-02-28T10:10:48;4.02;58.56
66582;SHT31;53438;48.898;2.308;2023-02-28T10:13:26;4.12;58.07
66582;SHT31;53438;48.898;2.308;2023-02-28T10:15:57;4.18;57.78
66582;SHT31;53438;48.898;2.308;2023-02-28T10:18:27;4.17;57.74
66582;SHT31;53438;48.898;2.308;2023-02-28T10:20:56;4.11;57.29
66582;SHT31;53438;48.898;2.308;2023-02-28T10:23:35;4.07;57.06
66582;SHT31;53438;48.898;2.308;2023-02-28T10:26:11;4.12;56.43
66582;SHT31;53438;48.898;2.308;2023-02-28T10:28:38;4.22;57.01
66582;SHT31;53438;48.898;2.308;2023-02-28T10:31:04;4.22;57.84
66582;SHT31;53438;48.898;2.308;2023-02-28T10:33:32;4.32;57.63
66582;SHT31;53438;48.898;2.308;2023-02-28T10:36:00;4.24;54.85
66582;SHT31;53438;48.898;2.308;2023-02-28T10:38:38;4.39;54.94
66582;SHT31;53438;48.898;2.308;2023-02-28T10:41:15;4.32;54.31
66582;SHT31;53438;48.898;2.308;2023-02-28T10:43:42;4.28;53.69
66582;SHT31;53438;48.898;2.308;2023-02-28T10:46:12;4.28;54.11
66582;SHT31;53438;48.898;2.308;2023-02-28T10:48:50;4.41;54.27
66582;SHT31;53438;48.898;2.308;2023-02-28T10:51:22;4.41;52.66
66582;SHT31;53438;48.898;2.308;2023-02-28T10:53:52;4.34;51.80
66582;SHT31;53438;48.898;2.308;2023-02-28T10:56:22;4.41;51.76
66582;SHT31;53438;48.898;2.308;2023-02-28T10:58:58;4.46;51.86
66582;SHT31;53438;48.898;2.308;2023-02-28T11:01:38;4.49;52.38
66582;SHT31;53438;48.898;2.308;2023-02-28T11:07:02;4.53;52.12
66582;SHT31;53438;48.898;2.308;2023-02-28T11:09:36;4.60;50.52
66582;SHT31;53438;48.898;2.308;2023-02-28T11:12:06;4.63;49.84
66582;SHT31;53438;48.898;2.308;2023-02-28T11:14:35;4.44;47.92
66582;SHT31;53438;48.898;2.308;2023-02-28T11:17:13;4.57;47.77
66582;SHT31;53438;48.898;2.308;2023-02-28T11:19:45;4.56;47.77
66582;SHT31;53438;48.898;2.308;2023-02-28T11:22:20;4.56;48.46
66582;SHT31;53438;48.898;2.308;2023-02-28T11:24:49;4.50;49.22
66582;SHT31;53438;48.898;2.308;2023-02-28T11:30:40;4.73;48.29
66582;SHT31;53438;48.898;2.308;2023-02-28T11:33:46;4.88;48.32
66582;SHT31;53438;48.898;2.308;2023-02-28T11:38:42;4.93;45.72
66582;SHT31;53438;48.898;2.308;2023-02-28T11:47:20;4.75;46.88
66582;SHT31;53438;48.898;2.308;2023-02-28T11:52:40;4.98;46.84
66582;SHT31;53438;48.898;2.308;2023-02-28T11:55:27;5.07;46.49
66582;SHT31;53438;48.898;2.308;2023-02-28T12:00:45;5.20;46.59
66582;SHT31;53438;48.898;2.308;2023-02-28T12:03:43;5.38;46.50
66582;SHT31;53438;48.898;2.308;2023-02-28T12:06:22;5.41;45.70
66582;SHT31;53438;48.898;2.308;2023-02-28T12:11:56;5.07;45.67
66582;SHT31;53438;48.898;2.308;2023-02-28T12:17:55;4.98;46.40
66582;SHT31;53438;48.898;2.308;2023-02-28T12:26:26;4.90;46.70
66582;SHT31;53438;48.898;2.308;2023-02-28T12:29:02;5.01;46.92
66582;SHT31;53438;48.898;2.308;2023-02-28T12:31:32;5.01;46.87
66582;SHT31;53438;48.898;2.308;2023-02-28T12:34:03;5.00;46.45
66582;SHT31;53438;48.898;2.308;2023-02-28T12:36:30;4.94;46.40
66582;SHT31;53438;48.898;2.308;2023-02-28T12:39:00;5.00;46.79
66582;SHT31;53438;48.898;2.308;2023-02-28T12:44:04;5.16;46.22
66582;SHT31;53438;48.898;2.308;2023-02-28T12:46:50;5.41;45.14
66582;SHT31;53438;48.898;2.308;2023-02-28T12:49:19;5.37;45.35
66582;SHT31;53438;48.898;2.308;2023-02-28T12:51:47;5.35;45.22
66582;SHT31;53438;48.898;2.308;2023-02-28T13:04:54;5.37;45.62
66582;SHT31;53438;48.898;2.308;2023-02-28T13:10:15;5.35;44.67
66582;SHT31;53438;48.898;2.308;2023-02-28T13:12:50;5.24;44.75
66582;SHT31;53438;48.898;2.308;2023-02-28T13:17:49;5.14;44.41
66582;SHT31;53438;48.898;2.308;2023-02-28T13:20:21;5.24;43.97
66582;SHT31;53438;48.898;2.308;2023-02-28T13:22:51;5.45;44.03
66582;SHT31;53438;48.898;2.308;2023-02-28T13:28:00;5.38;42.91
66582;SHT31;53438;48.898;2.308;2023-02-28T13:33:34;5.60;42.90
66582;SHT31;53438;48.898;2.308;2023-02-28T13:38:44;5.45;42.95
66582;SHT31;53438;48.898;2.308;2023-02-28T13:44:07;5.52;43.93
66582;SHT31;53438;48.898;2.308;2023-02-28T13:46:35;5.45;44.14
66582;SHT31;53438;48.898;2.308;2023-02-28T13:51:52;5.27;43.10
66582;SHT31;53438;48.898;2.308;2023-02-28T14:06:18;5.51;42.27
66582;SHT31;53438;48.898;2.308;2023-02-28T14:08:57;5.66;42.21
66582;SHT31;53438;48.898;2.308;2023-02-28T14:11:29;5.79;42.73
66582;SHT31;53438;48.898;2.308;2023-02-28T14:13:56;5.73;42.77
66582;SHT31;53438;48.898;2.308;2023-02-28T14:16:26;5.58;43.13
66582;SHT31;53438;48.898;2.308;2023-02-28T14:19:00;5.54;43.40
66582;SHT31;53438;48.898;2.308;2023-02-28T14:21:34;5.54;42.52
66582;SHT31;53438;48.898;2.308;2023-02-28T14:24:16;5.49;42.53
66582;SHT31;53438;48.898;2.308;2023-02-28T14:32:35;5.48;41.98
66582;SHT31;53438;48.898;2.308;2023-02-28T14:35:20;5.59;41.63
66582;SHT31;53438;48.898;2.308;2023-02-28T14:37:47;5.62;41.23
66582;SHT31;53438;48.898;2.308;2023-02-28T14:40:21;5.59;40.98
66582;SHT31;53438;48.898;2.308;2023-02-28T14:42:56;5.70;40.88
66582;SHT31;53438;48.898;2.308;2023-02-28T14:45:22;5.83;40.60
66582;SHT31;53438;48.898;2.308;2023-02-28T14:47:50;5.86;40.60
66582;SHT31;53438;48.898;2.308;2023-02-28T14:50:22;5.85;40.36
66582;SHT31;53438;48.898;2.308;2023-02-28T14:52:51;5.83;40.11
66582;SHT31;53438;48.898;2.308;2023-02-28T14:55:28;5.62;39.95
66582;SHT31;53438;48.898;2.308;2023-02-28T14:58:05;5.68;40.29
66582;SHT31;53438;48.898;2.308;2023-02-28T15:00:36;5.48;39.95
66582;SHT31;53438;48.898;2.308;2023-02-28T15:03:19;5.56;39.67
66582;SHT31;53438;48.898;2.308;2023-02-28T15:06:01;5.48;39.99
66582;SHT31;53438;48.898;2.308;2023-02-28T15:08:28;5.56;40.17
66582;SHT31;53438;48.898;2.308;2023-02-28T15:10:59;5.54;40.04
66582;SHT31;53438;48.898;2.308;2023-02-28T15:13:44;5.49;39.88
66582;SHT31;53438;48.898;2.308;2023-02-28T15:16:24;5.60;40.32
66582;SHT31;53438;48.898;2.308;2023-02-28T15:19:00;5.73;40.20
66582;SHT31;53438;48.898;2.308;2023-02-28T15:21:33;5.82;40.17
66582;SHT31;53438;48.898;2.308;2023-02-28T15:24:04;5.63;40.49
66582;SHT31;53438;48.898;2.308;2023-02-28T15:26:43;5.69;41.18
66582;SHT31;53438;48.898;2.308;2023-02-28T15:29:17;5.65;41.37
66582;SHT31;53438;48.898;2.308;2023-02-28T15:31:47;5.52;41.36
66582;SHT31;53438;48.898;2.308;2023-02-28T15:34:19;5.41;41.58
66582;SHT31;53438;48.898;2.308;2023-02-28T15:36:46;5.41;42.25
66582;SHT31;53438;48.898;2.308;2023-02-28T15:39:22;5.37;42.12
66582;SHT31;53438;48.898;2.308;2023-02-28T15:41:48;5.39;42.43
66582;SHT31;53438;48.898;2.308;2023-02-28T15:44:18;5.58;42.56
66582;SHT31;53438;48.898;2.308;2023-02-28T15:47:18;5.60;42.14
66582;SHT31;53438;48.898;2.308;2023-02-28T15:49:52;5.41;41.67
66582;SHT31;53438;48.898;2.308;2023-02-28T15:52:29;5.37;41.94
66582;SHT31;53438;48.898;2.308;2023-02-28T15:54:59;5.42;41.60
66582;SHT31;53438;48.898;2.308;2023-02-28T15:57:31;5.39;41.76
66582;SHT31;53438;48.898;2.308;2023-02-28T16:00:00;5.39;41.80
66582;SHT31;53438;48.898;2.308;2023-02-28T16:02:38;5.47;41.64
66582;SHT31;53438;48.898;2.308;2023-02-28T16:07:34;5.52;41.71
66582;SHT31;53438;48.898;2.308;2023-02-28T16:10:00;5.44;41.64
66582;SHT31;53438;48.898;2.308;2023-02-28T16:12:29;5.44;41.76
66582;SHT31;53438;48.898;2.308;2023-02-28T16:14:57;5.44;41.80
66582;SHT31;53438;48.898;2.308;2023-02-28T16:17:26;5.47;41.25
66582;SHT31;53438;48.898;2.308;2023-02-28T16:19:52;5.45;40.73
66582;SHT31;53438;48.898;2.308;2023-02-28T16:22:17;5.17;40.86
66582;SHT31;53438;48.898;2.308;2023-02-28T16:24:43;5.34;41.31
66582;SHT31;53438;48.898;2.308;2023-02-28T16:27:20;5.27;41.83
66582;SHT31;53438;48.898;2.308;2023-02-28T16:29:46;5.31;42.06
66582;SHT31;53438;48.898;2.308;2023-02-28T16:32:14;5.35;41.97
66582;SHT31;53438;48.898;2.308;2023-02-28T16:34:41;5.31;42.00
66582;SHT31;53438;48.898;2.308;2023-02-28T16:37:15;5.37;42.33
66582;SHT31;53438;48.898;2.308;2023-02-28T16:39:42;5.41;42.07
66582;SHT31;53438;48.898;2.308;2023-02-28T16:42:31;5.42;41.88
66582;SHT31;53438;48.898;2.308;2023-02-28T16:44:56;5.28;41.54
66582;SHT31;53438;48.898;2.308;2023-02-28T16:47:23;5.30;41.65
66582;SHT31;53438;48.898;2.308;2023-02-28T16:49:48;5.17;42.18
66582;SHT31;53438;48.898;2.308;2023-02-28T16:52:14;5.23;42.01
66582;SHT31;53438;48.898;2.308;2023-02-28T16:54:40;5.39;41.77
66582;SHT31;53438;48.898;2.308;2023-02-28T16:57:12;5.24;42.26
66582;SHT31;53438;48.898;2.308;2023-02-28T16:59:41;5.23;42.46
66582;SHT31;53438;48.898;2.308;2023-02-28T17:02:12;5.20;42.66
66582;SHT31;53438;48.898;2.308;2023-02-28T17:04:38;5.11;42.87
66582;SHT31;53438;48.898;2.308;2023-02-28T17:07:04;5.16;43.05
66582;SHT31;53438;48.898;2.308;2023-02-28T17:09:29;5.17;42.87
66582;SHT31;53438;48.898;2.308;2023-02-28T17:11:54;5.16;43.04
66582;SHT31;53438;48.898;2.308;2023-02-28T17:14:21;5.14;43.19
66582;SHT31;53438;48.898;2.308;2023-02-28T17:16:48;5.11;43.28
66582;SHT31;53438;48.898;2.308;2023-02-28T17:19:15;5.10;43.20
66582;SHT31;53438;48.898;2.308;2023-02-28T17:21:42;5.04;43.44
66582;SHT31;53438;48.898;2.308;2023-02-28T17:24:08;5.10;43.28
66582;SHT31;53438;48.898;2.308;2023-02-28T17:26:34;5.06;43.54
66582;SHT31;53438;48.898;2.308;2023-02-28T17:29:00;5.07;43.40
66582;SHT31;53438;48.898;2.308;2023-02-28T17:31:26;5.14;43.68
66582;SHT31;53438;48.898;2.308;2023-02-28T17:33:53;5.10;43.47
66582;SHT31;53438;48.898;2.308;2023-02-28T17:36:24;5.07;43.48
66582;SHT31;53438;48.898;2.308;2023-02-28T17:38:52;5.08;43.66
66582;SHT31;53438;48.898;2.308;2023-02-28T17:41:20;4.98;43.80
66582;SHT31;53438;48.898;2.308;2023-02-28T17:43:47;5.01;43.78
66582;SHT31;53438;48.898;2.308;2023-02-28T17:46:23;5.00;43.31
66582;SHT31;53438;48.898;2.308;2023-02-28T17:48:52;5.00;43.53
66582;SHT31;53438;48.898;2.308;2023-02-28T17:51:19;5.03;43.81
66582;SHT31;53438;48.898;2.308;2023-02-28T17:53:45;4.97;43.71
66582;SHT31;53438;48.898;2.308;2023-02-28T17:56:16;4.90;43.87
66582;SHT31;53438;48.898;2.308;2023-02-28T17:58:43;4.93;43.73
66582;SHT31;53438;48.898;2.308;2023-02-28T18:01:08;4.94;43.91
66582;SHT31;53438;48.898;2.308;2023-02-28T18:03:34;4.94;44.20
66582;SHT31;53438;48.898;2.308;2023-02-28T18:06:00;5.00;43.84
66582;SHT31;53438;48.898;2.308;2023-02-28T18:08:26;4.93;44.01
66582;SHT31;53438;48.898;2.308;2023-02-28T18:10:52;4.96;44.09
66582;SHT31;53438;48.898;2.308;2023-02-28T18:13:17;4.90;44.32
66582;SHT31;53438;48.898;2.308;2023-02-28T18:15:43;4.90;44.03
66582;SHT31;53438;48.898;2.308;2023-02-28T18:18:08;4.91;44.02
66582;SHT31;53438;48.898;2.308;2023-02-28T18:20:34;4.93;43.65
66582;SHT31;53438;48.898;2.308;2023-02-28T18:23:00;4.97;43.64
66582;SHT31;53438;48.898;2.308;2023-02-28T18:25:25;4.96;43.48
66582;SHT31;53438;48.898;2.308;2023-02-28T18:27:51;4.90;43.61
66582;SHT31;53438;48.898;2.308;2023-02-28T18:30:27;4.97;43.23
66582;SHT31;53438;48.898;2.308;2023-02-28T18:32:55;4.90;43.39
66582;SHT31;53438;48.898;2.308;2023-02-28T18:35:22;4.96;43.32
66582;SHT31;53438;48.898;2.308;2023-02-28T18:38:24;4.96;43.61
66582;SHT31;53438;48.898;2.308;2023-02-28T18:40:58;4.93;43.66
66582;SHT31;53438;48.898;2.308;2023-02-28T18:43:25;4.87;44.12
66582;SHT31;53438;48.898;2.308;2023-02-28T18:45:52;4.87;44.04
66582;SHT31;53438;48.898;2.308;2023-02-28T18:48:18;4.83;44.38
66582;SHT31;53438;48.898;2.308;2023-02-28T18:50:50;4.81;44.54
66582;SHT31;53438;48.898;2.308;2023-02-28T18:53:17;4.76;44.76
66582;SHT31;53438;48.898;2.308;2023-02-28T18:55:43;4.75;44.77
66582;SHT31;53438;48.898;2.308;2023-02-28T18:58:08;4.73;45.04
66582;SHT31;53438;48.898;2.308;2023-02-28T19:00:34;4.73;45.04
66582;SHT31;53438;48.898;2.308;2023-02-28T19:03:01;4.80;45.12
66582;SHT31;53438;48.898;2.308;2023-02-28T19:05:27;4.67;45.21
66582;SHT31;53438;48.898;2.308;2023-02-28T19:07:57;4.70;45.50
66582;SHT31;53438;48.898;2.308;2023-02-28T19:10:22;4.66;45.66
66582;SHT31;53438;48.898;2.308;2023-02-28T19:12:47;4.65;45.44
66582;SHT31;53438;48.898;2.308;2023-02-28T19:15:13;4.70;45.15
66582;SHT31;53438;48.898;2.308;2023-02-28T19:17:38;4.63;45.52
66582;SHT31;53438;48.898;2.308;2023-02-28T19:20:05;4.65;45.39
66582;SHT31;53438;48.898;2.308;2023-02-28T19:22:31;4.77;45.58
66582;SHT31;53438;48.898;2.308;2023-02-28T19:24:58;4.69;45.17
66582;SHT31;53438;48.898;2.308;2023-02-28T19:27:24;4.66;45.16
66582;SHT31;53438;48.898;2.308;2023-02-28T19:29:51;4.65;45.33
66582;SHT31;53438;48.898;2.308;2023-02-28T19:32:19;4.67;45.62
66582;SHT31;53438;48.898;2.308;2023-02-28T19:34:46;4.69;44.95
66582;SHT31;53438;48.898;2.308;2023-02-28T19:37:12;4.79;45.25
66582;SHT31;53438;48.898;2.308;2023-02-28T19:39:37;4.75;45.15
66582;SHT31;53438;48.898;2.308;2023-02-28T19:42:07;4.72;45.62
66582;SHT31;53438;48.898;2.308;2023-02-28T19:44:32;4.70;45.42
66582;SHT31;53438;48.898;2.308;2023-02-28T19:46:58;4.67;45.28
66582;SHT31;53438;48.898;2.308;2023-02-28T19:49:23;4.76;45.40
66582;SHT31;53438;48.898;2.308;2023-02-28T19:51:48;4.77;45.87
66582;SHT31;53438;48.898;2.308;2023-02-28T19:54:14;4.72;45.81
66582;SHT31;53438;48.898;2.308;2023-02-28T19:56:39;4.72;46.01
66582;SHT31;53438;48.898;2.308;2023-02-28T19:59:04;4.76;46.15
66582;SHT31;53438;48.898;2.308;2023-02-28T20:01:30;4.67;46.55
66582;SHT31;53438;48.898;2.308;2023-02-28T20:03:55;4.63;46.64
66582;SHT31;53438;48.898;2.308;2023-02-28T20:06:21;4.62;47.00
66582;SHT31;53438;48.898;2.308;2023-02-28T20:08:46;4.72;46.89
66582;SHT31;53438;48.898;2.308;2023-02-28T20:11:14;4.65;46.54
66582;SHT31;53438;48.898;2.308;2023-02-28T20:13:39;4.62;46.72
66582;SHT31;53438;48.898;2.308;2023-02-28T20:16:07;4.67;46.44
66582;SHT31;53438;48.898;2.308;2023-02-28T20:18:35;4.69;46.57
66582;SHT31;53438;48.898;2.308;2023-02-28T20:21:01;4.56;46.45
66582;SHT31;53438;48.898;2.308;2023-02-28T20:23:27;4.49;46.49
66582;SHT31;53438;48.898;2.308;2023-02-28T20:25:53;4.49;46.67